sensor_id;sensor_type;location;lat;lon;timestamp;P1;durP1;ratioP1;P2;durP2;ratioP2
4597;SDS011;62772;48.646;8.906;2023-12-20T00:04:29;5.60;;;3.47;;
4597;SDS011;62772;48.646;8.906;2023-12-20T00:09:29;5.60;;;3.40;;
4597;SDS011;62772;48.646;8.906;2023-12-20T00:14:30;4.57;;;3.40;;
4597;SDS011;62772;48.646;8.906;2023-12-20T00:19:30;4.93;;;4.37;;
4597;SDS011;62772;48.646;8.906;2023-12-20T00:24:31;4.40;;;3.00;;
4597;SDS011;62772;48.646;8.906;2023-12-20T00:29:31;4.17;;;3.20;;
4597;SDS011;62772;48.646;8.906;2023-12-20T00:34:31;5.13;;;3.87;;
4597;SDS011;62772;48.646;8.906;2023-12-20T00:39:32;4.30;;;3.13;;
4597;SDS011;62772;48.646;8.906;2023-12-20T00:44:33;4.63;;;3.00;;
4597;SDS011;62772;48.646;8.906;2023-12-20T00:49:33;5.80;;;3.30;;
4597;SDS011;62772;48.646;8.906;2023-12-20T00:54:34;3.83;;;2.80;;
4597;SDS011;62772;48.646;8.906;2023-12-20T00:59:34;4.70;;;3.27;;
4597;SDS011;62772;48.646;8.906;2023-12-20T01:04:35;4.40;;;3.10;;
4597;SDS011;62772;48.646;8.906;2023-12-20T01:09:35;5.80;;;3.10;;
4597;SDS011;62772;48.646;8.906;2023-12-20T01:14:36;5.17;;;3.20;;
4597;SDS011;62772;48.646;8.906;2023-12-20T01:19:36;4.10;;;2.90;;
4597;SDS011;62772;48.646;8.906;2023-12-20T01:24:36;4.83;;;3.40;;
4597;SDS011;62772;48.646;8.906;2023-12-20T01:29:37;6.70;;;3.77;;
4597;SDS011;62772;48.646;8.906;2023-12-20T01:34:37;5.10;;;3.90;;
4597;SDS011;62772;48.646;8.906;2023-12-20T01:39:38;6.70;;;3.50;;
4597;SDS011;62772;48.646;8.906;2023-12-20T01:44:38;5.93;;;2.50;;
4597;SDS011;62772;48.646;8.906;2023-12-20T01:49:39;3.87;;;2.80;;
4597;SDS011;62772;48.646;8.906;2023-12-20T01:54:39;3.03;;;2.37;;
4597;SDS011;62772;48.646;8.906;2023-12-20T01:59:42;3.37;;;2.03;;
4597;SDS011;62772;48.646;8.906;2023-12-20T02:04:42;2.40;;;2.00;;
4597;SDS011;62772;48.646;8.906;2023-12-20T02:09:43;2.50;;;1.60;;
4597;SDS011;62772;48.646;8.906;2023-12-20T02:14:44;2.50;;;1.80;;
4597;SDS011;62772;48.646;8.906;2023-12-20T02:19:44;2.73;;;1.97;;
4597;SDS011;62772;48.646;8.906;2023-12-20T02:24:45;3.30;;;1.93;;
4597;SDS011;62772;48.646;8.906;2023-12-20T02:29:46;2.33;;;1.40;;
4597;SDS011;62772;48.646;8.906;2023-12-20T02:34:48;3.20;;;1.67;;
4597;SDS011;62772;48.646;8.906;2023-12-20T02:39:48;2.40;;;1.37;;
4597;SDS011;62772;48.646;8.906;2023-12-20T02:44:49;2.27;;;1.23;;
4597;SDS011;62772;48.646;8.906;2023-12-20T02:49:49;1.50;;;1.10;;
4597;SDS011;62772;48.646;8.906;2023-12-20T02:54:50;1.50;;;1.10;;
4597;SDS011;62772;48.646;8.906;2023-12-20T02:59:50;1.40;;;1.07;;
4597;SDS011;62772;48.646;8.906;2023-12-20T03:04:50;1.83;;;1.30;;
4597;SDS011;62772;48.646;8.906;2023-12-20T03:09:51;1.60;;;1.10;;
4597;SDS011;62772;48.646;8.906;2023-12-20T03:14:51;1.60;;;1.30;;
4597;SDS011;62772;48.646;8.906;2023-12-20T03:19:52;1.83;;;1.30;;
4597;SDS011;62772;48.646;8.906;2023-12-20T03:24:52;2.83;;;1.30;;
4597;SDS011;62772;48.646;8.906;2023-12-20T03:29:53;3.50;;;1.43;;
4597;SDS011;62772;48.646;8.906;2023-12-20T03:34:53;1.60;;;1.30;;
4597;SDS011;62772;48.646;8.906;2023-12-20T03:39:54;1.60;;;1.30;;
4597;SDS011;62772;48.646;8.906;2023-12-20T03:44:55;3.10;;;1.10;;
4597;SDS011;62772;48.646;8.906;2023-12-20T03:49:55;1.50;;;1.20;;
4597;SDS011;62772;48.646;8.906;2023-12-20T03:54:55;1.40;;;1.00;;
4597;SDS011;62772;48.646;8.906;2023-12-20T03:59:56;1.70;;;1.20;;
4597;SDS011;62772;48.646;8.906;2023-12-20T04:04:56;1.57;;;1.30;;
4597;SDS011;62772;48.646;8.906;2023-12-20T04:09:57;1.53;;;1.13;;
4597;SDS011;62772;48.646;8.906;2023-12-20T04:14:57;1.63;;;1.20;;
4597;SDS011;62772;48.646;8.906;2023-12-20T04:19:57;1.97;;;1.37;;
4597;SDS011;62772;48.646;8.906;2023-12-20T04:24:58;1.70;;;1.20;;
4597;SDS011;62772;48.646;8.906;2023-12-20T04:29:58;1.70;;;1.10;;
4597;SDS011;62772;48.646;8.906;2023-12-20T04:34:59;1.60;;;1.20;;
4597;SDS011;62772;48.646;8.906;2023-12-20T04:39:59;2.57;;;1.30;;
4597;SDS011;62772;48.646;8.906;2023-12-20T04:44:59;1.77;;;1.43;;
4597;SDS011;62772;48.646;8.906;2023-12-20T04:50:00;1.60;;;1.30;;
4597;SDS011;62772;48.646;8.906;2023-12-20T04:55:01;2.00;;;1.10;;
4597;SDS011;62772;48.646;8.906;2023-12-20T05:00:01;1.70;;;1.20;;
4597;SDS011;62772;48.646;8.906;2023-12-20T05:05:02;1.60;;;1.10;;
4597;SDS011;62772;48.646;8.906;2023-12-20T05:10:03;2.10;;;1.30;;
4597;SDS011;62772;48.646;8.906;2023-12-20T05:15:07;2.60;;;1.57;;
4597;SDS011;62772;48.646;8.906;2023-12-20T05:20:08;3.30;;;2.03;;
4597;SDS011;62772;48.646;8.906;2023-12-20T05:25:08;4.33;;;2.10;;
4597;SDS011;62772;48.646;8.906;2023-12-20T05:30:09;3.30;;;2.23;;
4597;SDS011;62772;48.646;8.906;2023-12-20T05:35:10;3.63;;;1.80;;
4597;SDS011;62772;48.646;8.906;2023-12-20T05:40:10;3.40;;;1.60;;
4597;SDS011;62772;48.646;8.906;2023-12-20T05:45:11;2.37;;;1.50;;
4597;SDS011;62772;48.646;8.906;2023-12-20T05:50:11;3.13;;;2.20;;
4597;SDS011;62772;48.646;8.906;2023-12-20T05:55:12;3.73;;;2.30;;
4597;SDS011;62772;48.646;8.906;2023-12-20T06:00:13;3.73;;;2.70;;
4597;SDS011;62772;48.646;8.906;2023-12-20T06:05:14;3.90;;;2.40;;
4597;SDS011;62772;48.646;8.906;2023-12-20T06:10:14;7.03;;;3.60;;
4597;SDS011;62772;48.646;8.906;2023-12-20T06:15:15;3.53;;;2.27;;
4597;SDS011;62772;48.646;8.906;2023-12-20T06:20:15;7.77;;;4.50;;
4597;SDS011;62772;48.646;8.906;2023-12-20T06:25:16;4.00;;;2.80;;
4597;SDS011;62772;48.646;8.906;2023-12-20T06:30:16;4.23;;;3.00;;
4597;SDS011;62772;48.646;8.906;2023-12-20T06:35:17;3.73;;;2.53;;
4597;SDS011;62772;48.646;8.906;2023-12-20T06:40:17;5.47;;;3.53;;
4597;SDS011;62772;48.646;8.906;2023-12-20T06:45:18;4.63;;;3.40;;
4597;SDS011;62772;48.646;8.906;2023-12-20T06:50:18;6.03;;;2.57;;
4597;SDS011;62772;48.646;8.906;2023-12-20T06:55:19;3.07;;;2.47;;
4597;SDS011;62772;48.646;8.906;2023-12-20T07:00:19;3.50;;;2.60;;
4597;SDS011;62772;48.646;8.906;2023-12-20T07:05:21;4.00;;;2.60;;
4597;SDS011;62772;48.646;8.906;2023-12-20T07:10:21;3.43;;;2.50;;
4597;SDS011;62772;48.646;8.906;2023-12-20T07:15:22;3.20;;;2.20;;
4597;SDS011;62772;48.646;8.906;2023-12-20T07:20:23;3.00;;;2.20;;
4597;SDS011;62772;48.646;8.906;2023-12-20T07:25:23;2.33;;;1.80;;
4597;SDS011;62772;48.646;8.906;2023-12-20T07:30:23;2.37;;;1.90;;
4597;SDS011;62772;48.646;8.906;2023-12-20T07:35:24;2.90;;;2.27;;
4597;SDS011;62772;48.646;8.906;2023-12-20T07:40:25;3.50;;;2.30;;
4597;SDS011;62772;48.646;8.906;2023-12-20T07:45:25;2.83;;;2.10;;
4597;SDS011;62772;48.646;8.906;2023-12-20T07:50:26;4.30;;;3.13;;
4597;SDS011;62772;48.646;8.906;2023-12-20T07:55:27;6.43;;;4.47;;
4597;SDS011;62772;48.646;8.906;2023-12-20T08:00:27;10.43;;;5.60;;
4597;SDS011;62772;48.646;8.906;2023-12-20T08:05:28;6.43;;;4.90;;
4597;SDS011;62772;48.646;8.906;2023-12-20T08:10:28;8.80;;;4.33;;
4597;SDS011;62772;48.646;8.906;2023-12-20T08:15:45;6.90;;;4.60;;
4597;SDS011;62772;48.646;8.906;2023-12-20T08:20:45;7.60;;;4.30;;
4597;SDS011;62772;48.646;8.906;2023-12-20T08:25:45;10.40;;;6.10;;
4597;SDS011;62772;48.646;8.906;2023-12-20T08:30:46;15.03;;;5.87;;
4597;SDS011;62772;48.646;8.906;2023-12-20T08:35:47;8.30;;;5.10;;
4597;SDS011;62772;48.646;8.906;2023-12-20T08:40:47;6.40;;;3.67;;
4597;SDS011;62772;48.646;8.906;2023-12-20T08:45:48;6.90;;;3.30;;
4597;SDS011;62772;48.646;8.906;2023-12-20T08:50:49;7.43;;;4.10;;
4597;SDS011;62772;48.646;8.906;2023-12-20T08:55:51;6.10;;;3.03;;
4597;SDS011;62772;48.646;8.906;2023-12-20T09:00:52;4.23;;;2.77;;
4597;SDS011;62772;48.646;8.906;2023-12-20T09:05:52;4.63;;;3.13;;
4597;SDS011;62772;48.646;8.906;2023-12-20T09:10:53;6.30;;;3.00;;
4597;SDS011;62772;48.646;8.906;2023-12-20T09:15:54;4.70;;;3.27;;
4597;SDS011;62772;48.646;8.906;2023-12-20T09:20:55;6.03;;;3.60;;
4597;SDS011;62772;48.646;8.906;2023-12-20T09:25:56;5.13;;;2.87;;
4597;SDS011;62772;48.646;8.906;2023-12-20T09:30:56;6.60;;;3.20;;
4597;SDS011;62772;48.646;8.906;2023-12-20T09:35:57;7.60;;;2.90;;
4597;SDS011;62772;48.646;8.906;2023-12-20T09:40:58;6.43;;;3.40;;
4597;SDS011;62772;48.646;8.906;2023-12-20T09:45:59;7.60;;;3.03;;
4597;SDS011;62772;48.646;8.906;2023-12-20T09:51:02;6.73;;;2.63;;
4597;SDS011;62772;48.646;8.906;2023-12-20T09:56:03;4.00;;;2.20;;
4597;SDS011;62772;48.646;8.906;2023-12-20T10:01:05;6.20;;;2.80;;
4597;SDS011;62772;48.646;8.906;2023-12-20T10:06:07;7.40;;;3.00;;
4597;SDS011;62772;48.646;8.906;2023-12-20T10:11:07;5.27;;;3.23;;
4597;SDS011;62772;48.646;8.906;2023-12-20T10:16:08;5.40;;;2.60;;
4597;SDS011;62772;48.646;8.906;2023-12-20T10:21:09;7.23;;;2.63;;
4597;SDS011;62772;48.646;8.906;2023-12-20T10:26:10;5.20;;;2.47;;
4597;SDS011;62772;48.646;8.906;2023-12-20T10:31:25;4.10;;;2.60;;
4597;SDS011;62772;48.646;8.906;2023-12-20T10:36:29;12.43;;;2.40;;
4597;SDS011;62772;48.646;8.906;2023-12-20T10:41:31;6.23;;;2.53;;
4597;SDS011;62772;48.646;8.906;2023-12-20T10:46:33;6.80;;;2.57;;
4597;SDS011;62772;48.646;8.906;2023-12-20T10:51:34;6.30;;;2.50;;
4597;SDS011;62772;48.646;8.906;2023-12-20T10:56:35;6.87;;;2.70;;
4597;SDS011;62772;48.646;8.906;2023-12-20T11:01:38;5.10;;;2.90;;
4597;SDS011;62772;48.646;8.906;2023-12-20T11:06:56;7.90;;;2.70;;
4597;SDS011;62772;48.646;8.906;2023-12-20T11:17:08;5.20;;;2.67;;
4597;SDS011;62772;48.646;8.906;2023-12-20T11:22:11;3.90;;;2.60;;
4597;SDS011;62772;48.646;8.906;2023-12-20T11:27:12;16.63;;;2.90;;
4597;SDS011;62772;48.646;8.906;2023-12-20T11:37:30;18.37;;;2.43;;
4597;SDS011;62772;48.646;8.906;2023-12-20T11:42:38;3.90;;;2.80;;
4597;SDS011;62772;48.646;8.906;2023-12-20T11:47:40;4.93;;;2.53;;
4597;SDS011;62772;48.646;8.906;2023-12-20T11:52:45;8.97;;;3.17;;
4597;SDS011;62772;48.646;8.906;2023-12-20T11:57:46;6.10;;;2.60;;
4597;SDS011;62772;48.646;8.906;2023-12-20T12:02:59;4.80;;;2.40;;
4597;SDS011;62772;48.646;8.906;2023-12-20T12:07:59;6.27;;;2.60;;
4597;SDS011;62772;48.646;8.906;2023-12-20T12:13:00;8.93;;;2.67;;
4597;SDS011;62772;48.646;8.906;2023-12-20T12:18:01;5.87;;;2.63;;
4597;SDS011;62772;48.646;8.906;2023-12-20T12:23:05;8.20;;;3.57;;
4597;SDS011;62772;48.646;8.906;2023-12-20T12:28:06;9.10;;;3.93;;
4597;SDS011;62772;48.646;8.906;2023-12-20T12:33:07;6.23;;;3.27;;
4597;SDS011;62772;48.646;8.906;2023-12-20T12:38:07;5.10;;;2.53;;
4597;SDS011;62772;48.646;8.906;2023-12-20T12:43:08;6.87;;;2.87;;
4597;SDS011;62772;48.646;8.906;2023-12-20T12:48:09;6.17;;;2.30;;
4597;SDS011;62772;48.646;8.906;2023-12-20T12:53:09;5.53;;;2.50;;
4597;SDS011;62772;48.646;8.906;2023-12-20T12:58:10;7.97;;;2.63;;
4597;SDS011;62772;48.646;8.906;2023-12-20T13:03:11;5.30;;;2.50;;
4597;SDS011;62772;48.646;8.906;2023-12-20T13:08:11;8.70;;;2.37;;
4597;SDS011;62772;48.646;8.906;2023-12-20T13:13:12;6.17;;;2.77;;
4597;SDS011;62772;48.646;8.906;2023-12-20T13:18:12;7.53;;;2.30;;
4597;SDS011;62772;48.646;8.906;2023-12-20T13:23:13;5.80;;;2.30;;
4597;SDS011;62772;48.646;8.906;2023-12-20T13:28:13;17.57;;;2.90;;
4597;SDS011;62772;48.646;8.906;2023-12-20T13:33:14;4.70;;;2.37;;
4597;SDS011;62772;48.646;8.906;2023-12-20T13:38:14;7.23;;;2.00;;
4597;SDS011;62772;48.646;8.906;2023-12-20T13:43:15;7.33;;;2.30;;
4597;SDS011;62772;48.646;8.906;2023-12-20T13:48:20;6.27;;;2.30;;
4597;SDS011;62772;48.646;8.906;2023-12-20T13:53:21;12.30;;;2.57;;
4597;SDS011;62772;48.646;8.906;2023-12-20T13:58:21;7.63;;;2.77;;
4597;SDS011;62772;48.646;8.906;2023-12-20T14:03:24;9.93;;;2.90;;
4597;SDS011;62772;48.646;8.906;2023-12-20T14:08:25;4.27;;;2.60;;
4597;SDS011;62772;48.646;8.906;2023-12-20T14:13:27;6.10;;;2.43;;
4597;SDS011;62772;48.646;8.906;2023-12-20T14:18:27;6.73;;;2.97;;
4597;SDS011;62772;48.646;8.906;2023-12-20T14:23:27;6.40;;;2.50;;
4597;SDS011;62772;48.646;8.906;2023-12-20T14:28:28;4.73;;;2.43;;
4597;SDS011;62772;48.646;8.906;2023-12-20T14:33:28;7.27;;;3.43;;
4597;SDS011;62772;48.646;8.906;2023-12-20T14:38:29;11.80;;;3.07;;
4597;SDS011;62772;48.646;8.906;2023-12-20T14:43:29;5.93;;;3.27;;
4597;SDS011;62772;48.646;8.906;2023-12-20T14:48:30;10.40;;;3.23;;
4597;SDS011;62772;48.646;8.906;2023-12-20T14:53:30;6.07;;;3.37;;
4597;SDS011;62772;48.646;8.906;2023-12-20T14:58:31;6.90;;;2.70;;
4597;SDS011;62772;48.646;8.906;2023-12-20T15:03:31;6.47;;;3.40;;
4597;SDS011;62772;48.646;8.906;2023-12-20T15:08:32;4.70;;;3.17;;
4597;SDS011;62772;48.646;8.906;2023-12-20T15:13:32;6.90;;;3.13;;
4597;SDS011;62772;48.646;8.906;2023-12-20T15:18:33;12.03;;;6.90;;
4597;SDS011;62772;48.646;8.906;2023-12-20T15:23:33;14.33;;;4.70;;
4597;SDS011;62772;48.646;8.906;2023-12-20T15:28:34;8.23;;;3.50;;
4597;SDS011;62772;48.646;8.906;2023-12-20T15:33:34;7.10;;;3.70;;
4597;SDS011;62772;48.646;8.906;2023-12-20T15:38:35;6.70;;;3.80;;
4597;SDS011;62772;48.646;8.906;2023-12-20T15:43:35;14.60;;;3.97;;
4597;SDS011;62772;48.646;8.906;2023-12-20T15:48:36;7.53;;;4.50;;
4597;SDS011;62772;48.646;8.906;2023-12-20T15:53:37;6.63;;;4.10;;
4597;SDS011;62772;48.646;8.906;2023-12-20T15:58:37;8.50;;;3.93;;
4597;SDS011;62772;48.646;8.906;2023-12-20T16:03:38;19.47;;;7.70;;
4597;SDS011;62772;48.646;8.906;2023-12-20T16:08:38;11.60;;;6.17;;
4597;SDS011;62772;48.646;8.906;2023-12-20T16:13:39;17.50;;;7.33;;
4597;SDS011;62772;48.646;8.906;2023-12-20T16:18:39;13.63;;;6.73;;
4597;SDS011;62772;48.646;8.906;2023-12-20T16:23:40;9.90;;;6.20;;
4597;SDS011;62772;48.646;8.906;2023-12-20T16:28:40;8.90;;;5.47;;
4597;SDS011;62772;48.646;8.906;2023-12-20T16:33:41;10.30;;;5.00;;
4597;SDS011;62772;48.646;8.906;2023-12-20T16:38:41;7.63;;;4.80;;
4597;SDS011;62772;48.646;8.906;2023-12-20T16:43:41;10.33;;;6.07;;
4597;SDS011;62772;48.646;8.906;2023-12-20T16:48:42;10.17;;;4.93;;
4597;SDS011;62772;48.646;8.906;2023-12-20T16:53:42;13.17;;;7.30;;
4597;SDS011;62772;48.646;8.906;2023-12-20T16:58:43;10.73;;;6.40;;
4597;SDS011;62772;48.646;8.906;2023-12-20T17:03:43;19.23;;;6.40;;
4597;SDS011;62772;48.646;8.906;2023-12-20T17:08:44;10.77;;;6.70;;
4597;SDS011;62772;48.646;8.906;2023-12-20T17:13:44;14.93;;;8.47;;
4597;SDS011;62772;48.646;8.906;2023-12-20T17:18:45;17.00;;;7.27;;
4597;SDS011;62772;48.646;8.906;2023-12-20T17:23:48;10.47;;;5.20;;
4597;SDS011;62772;48.646;8.906;2023-12-20T17:28:49;9.83;;;5.77;;
4597;SDS011;62772;48.646;8.906;2023-12-20T17:33:49;9.17;;;5.13;;
4597;SDS011;62772;48.646;8.906;2023-12-20T17:38:50;8.33;;;4.17;;
4597;SDS011;62772;48.646;8.906;2023-12-20T17:43:50;9.73;;;4.87;;
4597;SDS011;62772;48.646;8.906;2023-12-20T17:48:50;6.57;;;3.30;;
4597;SDS011;62772;48.646;8.906;2023-12-20T17:53:51;7.03;;;3.60;;
4597;SDS011;62772;48.646;8.906;2023-12-20T17:58:51;9.37;;;3.93;;
4597;SDS011;62772;48.646;8.906;2023-12-20T18:03:53;10.60;;;3.60;;
4597;SDS011;62772;48.646;8.906;2023-12-20T18:08:53;6.43;;;4.03;;
4597;SDS011;62772;48.646;8.906;2023-12-20T18:13:55;5.70;;;4.00;;
4597;SDS011;62772;48.646;8.906;2023-12-20T18:18:55;9.73;;;4.50;;
4597;SDS011;62772;48.646;8.906;2023-12-20T18:23:56;8.10;;;4.93;;
4597;SDS011;62772;48.646;8.906;2023-12-20T18:28:56;8.63;;;4.00;;
4597;SDS011;62772;48.646;8.906;2023-12-20T18:33:56;9.73;;;5.33;;
4597;SDS011;62772;48.646;8.906;2023-12-20T18:38:57;8.30;;;4.60;;
4597;SDS011;62772;48.646;8.906;2023-12-20T18:43:58;6.20;;;3.63;;
4597;SDS011;62772;48.646;8.906;2023-12-20T18:48:59;8.27;;;5.30;;
4597;SDS011;62772;48.646;8.906;2023-12-20T18:54:05;5.96;;;3.82;;
4597;SDS011;62772;48.646;8.906;2023-12-20T18:59:05;8.57;;;5.20;;
4597;SDS011;62772;48.646;8.906;2023-12-20T19:04:06;9.30;;;5.00;;
4597;SDS011;62772;48.646;8.906;2023-12-20T19:09:06;10.30;;;4.20;;
4597;SDS011;62772;48.646;8.906;2023-12-20T19:14:07;5.40;;;4.07;;
4597;SDS011;62772;48.646;8.906;2023-12-20T19:19:11;9.00;;;4.83;;
4597;SDS011;62772;48.646;8.906;2023-12-20T19:24:12;13.03;;;5.00;;
4597;SDS011;62772;48.646;8.906;2023-12-20T19:29:12;11.63;;;5.30;;
4597;SDS011;62772;48.646;8.906;2023-12-20T19:34:13;10.80;;;5.20;;
4597;SDS011;62772;48.646;8.906;2023-12-20T19:39:13;9.97;;;4.60;;
4597;SDS011;62772;48.646;8.906;2023-12-20T19:44:14;8.00;;;4.80;;
4597;SDS011;62772;48.646;8.906;2023-12-20T19:49:16;11.30;;;5.13;;
4597;SDS011;62772;48.646;8.906;2023-12-20T19:54:17;9.93;;;5.47;;
4597;SDS011;62772;48.646;8.906;2023-12-20T19:59:17;16.13;;;8.47;;
4597;SDS011;62772;48.646;8.906;2023-12-20T20:04:18;13.77;;;7.63;;
4597;SDS011;62772;48.646;8.906;2023-12-20T20:09:19;9.93;;;4.63;;
4597;SDS011;62772;48.646;8.906;2023-12-20T20:14:19;7.60;;;5.03;;
4597;SDS011;62772;48.646;8.906;2023-12-20T20:19:19;9.33;;;4.57;;
4597;SDS011;62772;48.646;8.906;2023-12-20T20:24:20;8.33;;;4.63;;
4597;SDS011;62772;48.646;8.906;2023-12-20T20:29:21;8.07;;;3.93;;
4597;SDS011;62772;48.646;8.906;2023-12-20T20:34:21;8.80;;;4.40;;
4597;SDS011;62772;48.646;8.906;2023-12-20T20:39:27;10.37;;;5.80;;
4597;SDS011;62772;48.646;8.906;2023-12-20T20:44:28;11.67;;;5.60;;
4597;SDS011;62772;48.646;8.906;2023-12-20T20:49:28;14.00;;;6.70;;
4597;SDS011;62772;48.646;8.906;2023-12-20T20:54:29;7.20;;;4.73;;
4597;SDS011;62772;48.646;8.906;2023-12-20T20:59:30;8.40;;;4.47;;
4597;SDS011;62772;48.646;8.906;2023-12-20T21:04:30;9.60;;;3.80;;
4597;SDS011;62772;48.646;8.906;2023-12-20T21:09:31;7.53;;;5.07;;
4597;SDS011;62772;48.646;8.906;2023-12-20T21:14:32;6.90;;;4.37;;
4597;SDS011;62772;48.646;8.906;2023-12-20T21:19:33;25.20;;;10.83;;
4597;SDS011;62772;48.646;8.906;2023-12-20T21:24:33;11.00;;;5.13;;
4597;SDS011;62772;48.646;8.906;2023-12-20T21:29:35;11.53;;;5.23;;
4597;SDS011;62772;48.646;8.906;2023-12-20T21:34:35;11.53;;;4.10;;
4597;SDS011;62772;48.646;8.906;2023-12-20T21:39:36;7.10;;;4.07;;
4597;SDS011;62772;48.646;8.906;2023-12-20T21:44:37;6.80;;;3.40;;
4597;SDS011;62772;48.646;8.906;2023-12-20T21:49:37;12.17;;;3.57;;
4597;SDS011;62772;48.646;8.906;2023-12-20T21:54:38;8.00;;;3.80;;
4597;SDS011;62772;48.646;8.906;2023-12-20T21:59:38;6.30;;;3.67;;
4597;SDS011;62772;48.646;8.906;2023-12-20T22:04:39;5.50;;;3.23;;
4597;SDS011;62772;48.646;8.906;2023-12-20T22:09:39;5.57;;;3.00;;
4597;SDS011;62772;48.646;8.906;2023-12-20T22:14:40;7.10;;;3.50;;
4597;SDS011;62772;48.646;8.906;2023-12-20T22:19:40;6.00;;;3.50;;
4597;SDS011;62772;48.646;8.906;2023-12-20T22:24:40;7.67;;;3.70;;
4597;SDS011;62772;48.646;8.906;2023-12-20T22:29:41;40.70;;;15.10;;
4597;SDS011;62772;48.646;8.906;2023-12-20T22:34:41;15.07;;;4.83;;
4597;SDS011;62772;48.646;8.906;2023-12-20T22:39:42;7.00;;;4.27;;
4597;SDS011;62772;48.646;8.906;2023-12-20T22:44:42;8.20;;;4.63;;
4597;SDS011;62772;48.646;8.906;2023-12-20T22:49:43;7.97;;;4.40;;
4597;SDS011;62772;48.646;8.906;2023-12-20T22:54:43;7.37;;;4.00;;
4597;SDS011;62772;48.646;8.906;2023-12-20T22:59:44;5.10;;;3.77;;
4597;SDS011;62772;48.646;8.906;2023-12-20T23:04:44;5.67;;;3.60;;
4597;SDS011;62772;48.646;8.906;2023-12-20T23:09:45;6.23;;;3.53;;
4597;SDS011;62772;48.646;8.906;2023-12-20T23:14:46;7.43;;;2.90;;
4597;SDS011;62772;48.646;8.906;2023-12-20T23:19:46;5.40;;;3.40;;
4597;SDS011;62772;48.646;8.906;2023-12-20T23:24:46;5.63;;;2.70;;
4597;SDS011;62772;48.646;8.906;2023-12-20T23:29:47;6.33;;;2.97;;
4597;SDS011;62772;48.646;8.906;2023-12-20T23:34:47;6.33;;;3.10;;
4597;SDS011;62772;48.646;8.906;2023-12-20T23:39:50;4.00;;;2.73;;
4597;SDS011;62772;48.646;8.906;2023-12-20T23:44:50;3.50;;;2.27;;
4597;SDS011;62772;48.646;8.906;2023-12-20T23:49:51;4.23;;;2.47;;
4597;SDS011;62772;48.646;8.906;2023-12-20T23:54:51;5.47;;;2.70;;
4597;SDS011;62772;48.646;8.906;2023-12-20T23:59:51;3.53;;;2.03;;
